Airfield :
LOGIN :

Register | Disclaimer

   EN    FR    IT 

 










Legend :    VFR   Marginal VFR   IFR   Intensive IFR   Very Intensive IFR
Visi :
Ceiling :
>= 8 km
>= 3000ft
5 to 8 km
1000 to 3000 ft
1500m to 5 km
500 to 1000 ft
800 to 1500m
200 to 500 ft
< 800m
< 200 ft
Symbols :   Thunderstorms  Fog  Heavy snow  Heavy precipitations  Wind > 20 kt
SIGMETs :     Misc.  Thunderstorms  Icing  Turbulence  Mountain Waves  Volcanic Ashes







- Airport Elevation : 313 ft
- IATA code : LEH
- Download approach charts


LFOH - Le Havre Octeville

CURRENT METAR :
  • 170530Z AUTO 18012KT 9999 -RADZ OVC005 17/17 Q1014 TEMPO 3000 DZRA

EXPIRED METARs :
  • 170500Z AUTO 18011KT 9999 OVC004 17/16 Q1014
  • 170430Z AUTO 19012KT 4200 -RA BR BKN007/// OVC015/// ///TCU 16/16 Q1014
  • 170400Z AUTO 19011KT 5000 -RA BR OVC018/// ///TCU 17/16 Q1014
  • 170330Z AUTO 18009KT 6000 RA BKN019/// BKN037/// OVC086/// ///TCU 18/15 Q1014
  • 170300Z AUTO 18011KT 9999 -RA SCT034 BKN041 BKN052 18/15 Q1014

TAF TAF LFOH
Valid from the 17 at 06:00 until the 18 at 06:00 UTC


170500Z 1706/1806 20012KT 9999 OVC018
TEMPO 1706/1713 3000 DZRA OVC006
TEMPO 1713/1715 26015KT
TEMPO 1715/1802 3000 SHRA BKN013
BECMG 1802/1804 27012KT OVC010
ATIS : +33 2 35 54 64 93
No reported NOTAMs for that airfield.



MET'MAP, your aeronautical weather chart ! - Copyright ORBIFLY December 2007 - Disclaimer

ORBIFLY MET'MAP TEAM :

Programming & Development : Alexandra Zaïnal
Concept & Development : Baudouin d'Aumeries
Co-Development & Prog : Marc-Olivier Méhu
Technical & hardware support : Manuel Goepfert

Contact : metmap@orbifly.com




SOURCES & CREDITS :

   NOAA